Time;durP1;ratioP1;P1;durP2;ratioP2;P2;SDS_P1;SDS_P2;PMS_P1;PMS_P2;Temp;Humidity;BMP_temperature;BMP_pressure;BME280_temperature;BME280_humidity;BME280_pressure;Samples;Min_cycle;Max_cycle;Signal;HPM_P1;HPM_P2
2022/08/12 00:44:29;;;;;;;3.50;3.30;;;23.80;38.90;;;;;;5033140;28;20431;-45
2022/08/12 00:46:56;;;;;;;3.10;2.90;;;23.80;39.00;;;;;;5033113;28;20420;-45
2022/08/12 00:49:24;;;;;;;6.13;2.97;;;23.80;39.10;;;;;;5032486;28;20189;-50
2022/08/12 00:52:10;;;;;;;4.33;2.97;;;23.80;39.10;;;;;;5031615;28;20428;-45
2022/08/12 00:54:44;;;;;;;3.53;2.90;;;23.90;39.00;;;;;;5032385;28;20941;-45
2022/08/12 00:57:12;;;;;;;3.10;2.50;;;23.90;39.20;;;;;;5033058;28;20428;-46
2022/08/12 00:59:48;;;;;;;7.43;2.93;;;24.00;39.00;;;;;;5032298;28;20447;-47
2022/08/12 01:02:28;;;;;;;4.93;3.30;;;24.00;39.10;;;;;;5032227;28;20497;-47
2022/08/12 01:13:18;;;;;;;6.70;3.60;;;23.80;39.30;;;;;;5033032;28;20446;-47
2022/08/12 01:15:45;;;;;;;2.97;2.77;;;23.90;39.30;;;;;;5032548;28;21074;-45
2022/08/12 01:18:15;;;;;;;3.20;3.00;;;23.90;39.20;;;;;;5032732;28;20427;-45
2022/08/12 01:21:02;;;;;;;3.53;3.30;;;23.90;39.00;;;;;;5030578;28;20424;-45
2022/08/12 01:23:53;;;;;;;2.73;2.47;;;24.00;39.00;;;;;;5032311;28;20490;-46
2022/08/12 01:26:22;;;;;;;4.73;3.70;;;24.10;38.90;;;;;;5032753;28;20436;-45
2022/08/12 01:28:51;;;;;;;4.33;3.10;;;24.10;38.80;;;;;;5031824;28;21036;-47
2022/08/12 01:31:18;;;;;;;4.33;3.30;;;24.10;38.70;;;;;;5032267;28;20480;-45
2022/08/12 01:34:06;;;;;;;4.37;2.70;;;24.10;38.70;;;;;;5031987;28;20430;-45
2022/08/12 01:36:40;;;;;;;2.83;2.63;;;24.10;38.80;;;;;;5032135;28;20951;-45
2022/08/12 01:39:06;;;;;;;4.27;3.03;;;24.10;38.80;;;;;;5031788;28;20530;-46
2022/08/12 01:41:37;;;;;;;3.10;2.80;;;24.10;38.90;;;;;;5031918;28;20503;-46
2022/08/12 01:44:03;;;;;;;3.77;2.83;;;23.90;39.10;;;;;;5031891;28;20503;-48
2022/08/12 01:47:18;;;;;;;3.47;2.90;;;23.90;39.30;;;;;;5030443;28;20435;-45
2022/08/12 01:50:00;;;;;;;3.00;2.80;;;23.80;39.40;;;;;;4989714;28;20484;-47
2022/08/12 01:52:52;;;;;;;4.17;3.17;;;23.80;39.40;;;;;;4989948;28;20951;-46
2022/08/12 01:55:23;;;;;;;3.10;2.90;;;23.70;39.80;;;;;;4994675;28;20479;-46
2022/08/12 01:58:13;;;;;;;3.20;2.90;;;23.50;40.00;;;;;;5031838;28;20440;-45
2022/08/12 02:00:51;;;;;;;4.03;3.10;;;23.50;40.10;;;;;;5031336;28;20428;-47
2022/08/12 02:12:48;;;;;;;3.20;2.90;;;23.10;40.90;;;;;;5049992;28;20500;-47
2022/08/12 02:15:47;;;;;;;5.03;3.23;;;23.00;41.20;;;;;;5051055;28;20489;-47
2022/08/12 02:18:46;;;;;;;3.63;2.87;;;22.80;41.40;;;;;;5046367;28;20451;-48
2022/08/12 02:21:45;;;;;;;2.83;2.63;;;22.70;41.70;;;;;;5049548;28;20443;-46
2022/08/12 02:24:14;;;;;;;5.57;3.20;;;22.70;41.60;;;;;;5050399;28;20454;-46
2022/08/12 02:26:43;;;;;;;3.20;3.00;;;22.60;41.80;;;;;;5051441;28;20419;-45
2022/08/12 02:29:11;;;;;;;4.30;3.13;;;22.60;41.90;;;;;;5050709;28;20423;-45
2022/08/12 02:31:38;;;;;;;3.33;3.03;;;22.60;41.80;;;;;;5050978;28;20442;-47
2022/08/12 02:34:05;;;;;;;4.43;2.80;;;22.60;42.00;;;;;;5050819;28;20439;-48
2022/08/12 02:36:32;;;;;;;3.47;2.70;;;22.50;42.20;;;;;;5051341;28;20459;-47
2022/08/12 02:38:59;;;;;;;3.43;3.13;;;22.50;42.20;;;;;;5048753;28;20494;-49
2022/08/12 02:41:31;;;;;;;3.70;3.30;;;22.60;42.20;;;;;;5050811;28;20852;-49
2022/08/12 02:44:06;;;;;;;3.77;2.93;;;22.60;42.30;;;;;;5050620;28;20423;-48
2022/08/12 02:46:34;;;;;;;4.40;3.10;;;22.60;42.30;;;;;;5050862;28;20431;-48
2022/08/12 02:49:08;;;;;;;2.83;2.63;;;22.60;42.40;;;;;;5050477;28;20445;-45
2022/08/12 02:51:39;;;;;;;8.80;6.80;;;22.60;42.40;;;;;;5050419;28;20489;-49
2022/08/12 02:54:06;;;;;;;11.80;6.83;;;22.70;42.30;;;;;;5039302;28;20531;-49
2022/08/12 02:56:39;;;;;;;9.03;6.50;;;22.70;42.20;;;;;;5030721;28;20436;-47
2022/08/12 02:59:10;;;;;;;5.30;3.90;;;22.80;42.00;;;;;;5028933;28;20443;-48
2022/08/12 03:01:42;;;;;;;3.33;3.03;;;23.00;41.80;;;;;;5030308;28;20466;-49
2022/08/12 03:04:16;;;;;;;3.10;2.77;;;23.00;41.70;;;;;;5030030;28;20432;-49
2022/08/12 03:07:00;;;;;;;4.30;3.17;;;23.10;41.70;;;;;;5028104;28;20909;-47
2022/08/12 03:09:31;;;;;;;3.33;3.07;;;23.10;41.50;;;;;;5030078;28;20463;-48
2022/08/12 03:12:06;;;;;;;3.37;3.07;;;23.10;41.50;;;;;;5030619;28;20918;-48
2022/08/12 03:14:34;;;;;;;3.87;3.40;;;23.00;41.60;;;;;;5030285;28;20454;-49
2022/08/12 03:17:21;;;;;;;3.67;3.33;;;23.00;41.70;;;;;;5030628;28;20440;-48
2022/08/12 03:19:49;;;;;;;3.73;3.43;;;22.90;41.90;;;;;;5030517;28;20506;-49
2022/08/12 03:22:17;;;;;;;3.27;3.00;;;22.80;42.10;;;;;;5030481;28;20459;-46
2022/08/12 03:24:44;;;;;;;4.50;3.00;;;22.80;42.10;;;;;;5033067;28;20481;-45
2022/08/12 03:27:14;;;;;;;3.23;3.03;;;22.80;42.10;;;;;;5034484;28;20435;-49
2022/08/12 03:29:43;;;;;;;2.90;2.60;;;22.80;42.10;;;;;;5034218;28;20483;-49
2022/08/12 03:32:11;;;;;;;3.30;2.80;;;22.80;42.00;;;;;;5032635;28;20527;-49
2022/08/12 03:34:37;;;;;;;3.10;2.67;;;22.80;42.10;;;;;;5034119;28;20436;-47
2022/08/12 03:37:04;;;;;;;3.17;2.87;;;22.70;42.40;;;;;;5034196;28;20818;-48
2022/08/12 03:39:40;;;;;;;3.17;2.87;;;22.60;42.80;;;;;;5034185;28;20431;-45
2022/08/12 03:42:39;;;;;;;3.00;2.73;;;22.60;42.80;;;;;;5034179;28;20436;-49
2022/08/12 04:01:58;;;;;;;4.07;3.67;;;22.00;44.80;;;;;;5033903;28;20434;-45
2022/08/12 04:04:24;;;;;;;4.00;3.60;;;21.90;45.00;;;;;;5033353;28;20420;-46
2022/08/12 04:06:50;;;;;;;5.30;3.23;;;21.60;45.70;;;;;;5033889;28;20189;-46
2022/08/12 04:09:20;;;;;;;6.47;3.10;;;21.40;46.10;;;;;;5033531;28;20427;-46
2022/08/12 04:14:30;;;;;;;4.23;3.10;;;21.20;46.30;;;;;;5033591;28;20475;-45
2022/08/12 04:16:56;;;;;;;3.57;3.27;;;21.40;45.80;;;;;;5033740;28;20428;-44
2022/08/12 04:19:23;;;;;;;4.77;3.77;;;21.00;46.60;;;;;;5033321;28;20958;-45
2022/08/12 04:21:49;;;;;;;3.70;3.40;;;20.70;47.50;;;;;;5033370;28;20255;-45
2022/08/12 04:24:16;;;;;;;3.93;3.10;;;20.60;48.00;;;;;;5033163;28;20431;-45
2022/08/12 04:26:42;;;;;;;4.07;3.60;;;20.50;48.20;;;;;;5032036;28;20196;-45
2022/08/12 04:29:09;;;;;;;3.60;3.40;;;20.50;48.20;;;;;;5033005;28;20420;-46
2022/08/12 04:31:38;;;;;;;4.67;3.53;;;20.50;48.40;;;;;;5033200;28;20221;-45
2022/08/12 04:34:06;;;;;;;4.40;3.90;;;20.20;49.10;;;;;;5032934;28;20435;-44
2022/08/12 04:36:32;;;;;;;4.17;3.30;;;19.90;49.90;;;;;;5032177;28;20456;-45
2022/08/12 04:38:59;;;;;;;4.00;3.60;;;19.90;50.10;;;;;;5032888;28;20517;-45
2022/08/12 04:41:26;;;;;;;4.53;4.10;;;19.90;50.10;;;;;;5033196;28;20473;-45
2022/08/12 04:43:53;;;;;;;4.90;3.43;;;19.70;50.60;;;;;;5032736;28;20428;-48
2022/08/12 04:46:19;;;;;;;4.60;3.70;;;19.70;50.60;;;;;;5033012;28;20561;-45
2022/08/12 04:48:48;;;;;;;6.13;4.00;;;20.00;50.30;;;;;;5032955;28;20523;-49
2022/08/12 04:51:14;;;;;;;4.30;3.90;;;20.10;49.70;;;;;;5032823;28;20225;-45
2022/08/12 04:53:40;;;;;;;4.10;3.70;;;20.10;49.60;;;;;;5030974;28;20425;-49
2022/08/12 04:56:06;;;;;;;4.73;4.20;;;20.10;49.90;;;;;;5032930;28;20916;-45
2022/08/12 04:58:33;;;;;;;3.67;3.37;;;20.10;50.00;;;;;;5032816;28;20510;-44
2022/08/12 05:00:59;;;;;;;5.73;4.13;;;20.20;49.80;;;;;;5032630;28;20919;-49
2022/08/12 05:03:25;;;;;;;4.53;4.13;;;20.40;49.40;;;;;;5033067;28;20523;-46
2022/08/12 05:05:51;;;;;;;5.70;4.10;;;20.70;49.00;;;;;;5032077;28;20793;-44
2022/08/12 05:08:18;;;;;;;4.57;4.17;;;20.90;48.40;;;;;;5032918;28;20431;-45
2022/08/12 05:10:45;;;;;;;4.33;3.90;;;21.10;47.90;;;;;;5031667;28;20538;-44
2022/08/12 05:13:17;;;;;;;5.73;4.40;;;21.40;47.40;;;;;;5032532;28;20466;-44
2022/08/12 05:15:46;;;;;;;8.57;3.90;;;21.50;46.90;;;;;;5032281;28;20425;-44
2022/08/12 05:18:13;;;;;;;5.17;4.63;;;21.60;46.80;;;;;;5032736;28;20462;-45
2022/08/12 05:20:42;;;;;;;8.80;3.60;;;21.70;46.50;;;;;;5030091;28;20882;-48
2022/08/12 05:23:16;;;;;;;4.37;3.97;;;21.80;46.40;;;;;;5032422;28;20550;-45
2022/08/12 05:25:44;;;;;;;3.90;3.60;;;21.90;46.20;;;;;;5032020;28;20427;-46
2022/08/12 05:28:11;;;;;;;4.50;3.83;;;22.00;46.00;;;;;;5032553;28;20458;-47
2022/08/12 05:30:37;;;;;;;7.30;3.83;;;22.10;45.70;;;;;;5031299;28;20498;-47
2022/08/12 05:33:04;;;;;;;3.30;3.10;;;22.20;45.60;;;;;;5032355;28;20420;-44
2022/08/12 05:35:35;;;;;;;3.37;3.07;;;22.20;45.70;;;;;;5031865;28;20673;-45
2022/08/12 05:40:47;;;;;;;4.90;4.00;;;21.70;46.00;;;;;;5031558;28;20837;-44
2022/08/12 05:43:13;;;;;;;6.13;3.70;;;21.70;46.20;;;;;;5032222;28;20432;-46
2022/08/12 05:45:39;;;;;;;3.83;3.53;;;21.80;46.00;;;;;;5030176;28;20455;-48
2022/08/12 05:48:05;;;;;;;3.37;3.07;;;21.90;45.80;;;;;;5031662;28;20813;-45
2022/08/12 05:50:31;;;;;;;4.50;3.53;;;21.80;45.80;;;;;;5031449;28;20646;-45
2022/08/12 05:52:57;;;;;;;4.67;4.17;;;21.90;45.90;;;;;;5031795;28;20435;-45
2022/08/12 05:55:23;;;;;;;3.70;2.97;;;22.00;45.70;;;;;;5031528;28;20793;-46
2022/08/12 05:57:54;;;;;;;4.03;3.63;;;22.30;45.40;;;;;;5031879;28;20254;-45
2022/08/12 06:00:21;;;;;;;3.60;3.30;;;22.40;45.10;;;;;;5030894;28;20236;-47
2022/08/12 06:02:47;;;;;;;3.77;3.47;;;22.40;45.10;;;;;;5031839;28;20440;-44
2022/08/12 06:05:12;;;;;;;3.40;3.20;;;22.40;45.00;;;;;;5031221;28;20431;-45
2022/08/12 06:07:44;;;;;;;3.10;2.80;;;22.40;45.00;;;;;;5031810;28;20258;-46
2022/08/12 06:10:10;;;;;;;3.20;2.90;;;22.50;44.80;;;;;;5031354;28;20250;-47
2022/08/12 06:12:36;;;;;;;3.30;3.10;;;22.60;44.30;;;;;;5029444;28;20443;-46
2022/08/12 06:15:03;;;;;;;4.90;3.47;;;22.80;43.80;;;;;;5031342;28;20439;-48
2022/08/12 06:17:29;;;;;;;4.03;3.70;;;22.90;43.60;;;;;;5031575;28;20253;-45
2022/08/12 06:19:57;;;;;;;3.87;3.13;;;23.00;43.60;;;;;;5030783;28;20488;-45
2022/08/12 06:22:24;;;;;;;3.87;3.33;;;23.00;43.60;;;;;;5031234;28;20431;-46
2022/08/12 06:24:52;;;;;;;3.33;3.00;;;23.20;43.10;;;;;;5031169;28;20527;-46
2022/08/12 06:27:18;;;;;;;5.20;3.53;;;23.30;42.90;;;;;;5030078;28;20456;-45
2022/08/12 06:29:44;;;;;;;7.20;3.80;;;23.50;42.50;;;;;;5030585;28;20480;-47
2022/08/12 06:32:09;;;;;;;3.80;3.30;;;23.40;42.50;;;;;;5030883;28;20856;-45
2022/08/12 06:34:35;;;;;;;3.37;2.83;;;23.50;42.40;;;;;;5030851;28;20649;-46
2022/08/12 06:37:01;;;;;;;3.10;2.90;;;23.80;41.90;;;;;;5031203;28;20236;-46
2022/08/12 06:39:27;;;;;;;3.23;2.90;;;24.00;41.40;;;;;;5028936;28;20228;-45
2022/08/12 06:44:38;;;;;;;3.97;3.60;;;24.30;41.50;;;;;;5030856;28;20687;-45
2022/08/12 06:47:04;;;;;;;3.60;3.30;;;24.60;40.80;;;;;;5031213;28;20472;-49
2022/08/12 06:49:35;;;;;;;4.43;3.30;;;24.90;40.40;;;;;;5030335;28;20463;-47
2022/08/12 06:52:03;;;;;;;5.10;3.53;;;25.20;39.80;;;;;;5030776;28;20201;-48
2022/08/12 06:54:29;;;;;;;7.27;3.37;;;25.40;39.40;;;;;;5030567;28;20998;-49
2022/08/12 06:56:55;;;;;;;9.47;3.17;;;25.60;38.80;;;;;;5031142;28;20520;-47
2022/08/12 06:59:21;;;;;;;4.50;3.60;;;25.90;38.50;;;;;;5029596;28;20518;-46
2022/08/12 07:01:47;;;;;;;3.53;3.23;;;26.20;37.70;;;;;;5030939;28;20351;-47
2022/08/12 07:04:14;;;;;;;3.33;2.90;;;26.50;37.50;;;;;;5030551;28;20280;-49
2022/08/12 07:06:40;;;;;;;2.67;2.47;;;26.70;37.30;;;;;;5029557;28;20583;-48
2022/08/12 07:09:06;;;;;;;4.00;3.73;;;26.90;37.10;;;;;;5030291;28;20639;-48
2022/08/12 07:11:32;;;;;;;3.90;3.33;;;27.10;37.00;;;;;;5030494;28;20228;-47
2022/08/12 07:14:00;;;;;;;5.00;3.33;;;27.20;36.00;;;;;;5030366;28;20193;-48
2022/08/12 07:16:51;;;;;;;3.00;2.80;;;27.40;35.60;;;;;;5030838;28;20428;-49
2022/08/12 07:19:13;;;;;;;7.20;3.40;;;27.30;35.10;;;;;;5030093;28;20497;-47
2022/08/12 07:21:38;;;;;;;3.43;3.23;;;27.00;35.40;;;;;;5030472;28;20915;-45
2022/08/12 07:24:04;;;;;;;3.00;2.80;;;26.80;36.00;;;;;;5030346;28;20200;-46
2022/08/12 07:26:30;;;;;;;4.57;2.97;;;27.00;35.70;;;;;;5030722;28;20189;-49
2022/08/12 07:28:55;;;;;;;4.67;3.07;;;27.00;35.60;;;;;;5030206;28;20428;-46
2022/08/12 07:31:21;;;;;;;3.70;2.40;;;27.20;35.60;;;;;;5030250;28;20338;-47
2022/08/12 07:33:48;;;;;;;3.10;2.90;;;27.60;35.00;;;;;;5028302;28;20704;-47
2022/08/12 07:36:14;;;;;;;4.83;3.30;;;27.90;34.30;;;;;;5031075;28;20652;-48
2022/08/12 07:38:45;;;;;;;4.03;3.63;;;28.20;33.60;;;;;;5029941;28;20466;-47
2022/08/12 07:41:13;;;;;;;3.27;2.97;;;28.30;33.50;;;;;;5030326;28;20189;-46
2022/08/12 07:43:42;;;;;;;3.27;2.70;;;28.40;32.60;;;;;;5030048;28;20849;-48
2022/08/12 07:46:10;;;;;;;7.50;3.47;;;28.50;33.00;;;;;;5030532;28;20432;-49
2022/08/12 07:48:45;;;;;;;5.80;3.80;;;28.50;32.70;;;;;;5030160;28;20940;-47
2022/08/12 07:51:11;;;;;;;3.23;2.93;;;28.50;32.90;;;;;;5030185;28;20489;-49
2022/08/12 07:53:38;;;;;;;3.27;2.70;;;28.70;32.40;;;;;;5029758;28;20879;-50
2022/08/12 07:56:05;;;;;;;4.57;2.53;;;28.80;32.00;;;;;;5030216;28;20454;-50
2022/08/12 07:58:32;;;;;;;3.50;2.67;;;28.80;32.40;;;;;;5029976;28;20428;-47
2022/08/12 08:00:59;;;;;;;2.70;2.50;;;28.90;31.80;;;;;;5028346;28;20434;-45
2022/08/12 08:03:25;;;;;;;2.90;2.60;;;28.90;31.30;;;;;;5030635;28;20559;-45
2022/08/12 08:05:52;;;;;;;5.07;2.80;;;28.90;31.70;;;;;;5030079;28;20431;-46
2022/08/12 08:08:20;;;;;;;4.50;3.73;;;29.20;31.00;;;;;;5030271;28;20458;-46
2022/08/12 08:10:47;;;;;;;2.80;2.60;;;29.60;31.00;;;;;;5031640;28;20498;-50
2022/08/12 08:13:14;;;;;;;2.93;2.60;;;29.90;30.10;;;;;;5034071;28;20432;-45
2022/08/12 08:15:40;;;;;;;3.20;2.90;;;30.10;29.90;;;;;;5033244;28;20424;-46
2022/08/12 08:18:10;;;;;;;2.47;2.27;;;30.50;30.00;;;;;;5033875;28;20915;-46
2022/08/12 08:20:42;;;;;;;4.30;2.90;;;30.70;29.20;;;;;;5033234;28;21027;-47
2022/08/12 08:23:14;;;;;;;4.60;3.37;;;30.50;29.30;;;;;;5033780;28;20420;-46
2022/08/12 08:25:40;;;;;;;6.17;2.70;;;30.40;29.50;;;;;;5032465;28;20440;-49
2022/08/12 08:28:15;;;;;;;3.30;2.87;;;30.80;29.20;;;;;;5032726;28;20430;-45
2022/08/12 08:30:44;;;;;;;3.20;2.90;;;30.90;28.40;;;;;;5032708;28;20502;-47
2022/08/12 08:33:11;;;;;;;2.67;2.40;;;31.30;28.60;;;;;;5033536;28;20493;-46
2022/08/12 08:35:38;;;;;;;2.43;2.23;;;31.60;28.20;;;;;;5032636;28;20763;-46
2022/08/12 08:38:30;;;;;;;2.50;2.30;;;31.80;27.40;;;;;;5033309;28;20479;-46
2022/08/12 08:43:40;;;;;;;2.60;2.40;;;32.10;27.30;;;;;;5033105;28;20513;-46
2022/08/12 08:46:06;;;;;;;3.70;2.60;;;31.80;26.80;;;;;;5033089;28;20471;-46
2022/08/12 08:48:33;;;;;;;3.47;3.13;;;31.40;27.50;;;;;;5032655;28;20198;-47
2022/08/12 08:50:59;;;;;;;5.13;2.80;;;30.90;28.00;;;;;;5033000;28;20239;-46
2022/08/12 08:53:25;;;;;;;3.17;2.57;;;31.10;28.30;;;;;;5031527;28;20444;-46
2022/08/12 08:55:52;;;;;;;5.10;2.67;;;31.40;27.90;;;;;;5033064;28;20435;-46
2022/08/12 08:58:20;;;;;;;4.00;2.50;;;31.70;27.50;;;;;;5033128;28;20907;-48
2022/08/12 09:00:49;;;;;;;4.30;2.60;;;31.90;27.00;;;;;;5032084;28;20911;-46
2022/08/12 09:03:16;;;;;;;2.53;2.37;;;32.10;26.70;;;;;;5033126;28;20436;-46
2022/08/12 09:05:42;;;;;;;4.97;2.30;;;32.40;26.70;;;;;;5032364;28;20416;-46
2022/08/12 09:08:08;;;;;;;3.07;2.30;;;32.50;26.30;;;;;;5032992;28;20462;-47
2022/08/12 09:10:34;;;;;;;4.10;2.33;;;31.50;25.80;;;;;;5031820;28;20240;-48
2022/08/12 09:15:46;;;;;;;2.73;2.23;;;31.80;26.70;;;;;;5032405;28;20443;-46
2022/08/12 09:18:12;;;;;;;2.50;2.30;;;32.10;26.50;;;;;;5032814;28;20435;-48
2022/08/12 09:20:39;;;;;;;2.03;1.93;;;32.50;26.20;;;;;;5029892;28;20440;-46
2022/08/12 09:23:10;;;;;;;2.37;2.17;;;32.90;26.00;;;;;;5031778;28;20992;-46
2022/08/12 09:25:37;;;;;;;3.20;2.90;;;32.80;25.40;;;;;;5031886;28;20436;-46
2022/08/12 09:28:03;;;;;;;2.60;2.40;;;32.50;25.60;;;;;;5032668;28;20516;-45
2022/08/12 09:30:29;;;;;;;3.20;2.23;;;32.30;25.30;;;;;;5031645;28;20502;-50
2022/08/12 09:32:55;;;;;;;4.20;2.50;;;32.20;25.10;;;;;;5032300;28;20420;-48
2022/08/12 09:35:27;;;;;;;3.30;2.27;;;32.20;25.20;;;;;;5031920;28;20483;-48
2022/08/12 09:37:55;;;;;;;3.63;1.93;;;32.30;24.70;;;;;;5032123;28;20464;-50
2022/08/12 09:40:23;;;;;;;2.63;1.97;;;32.60;24.70;;;;;;5031453;28;20535;-47
2022/08/12 09:45:35;;;;;;;3.30;2.43;;;32.80;24.30;;;;;;5031943;28;20419;-48
2022/08/12 09:48:05;;;;;;;3.30;2.27;;;32.50;24.40;;;;;;5030511;28;20460;-50
2022/08/12 09:50:31;;;;;;;2.27;2.17;;;32.50;24.50;;;;;;5031183;28;20859;-50
2022/08/12 09:53:16;;;;;;;2.60;2.40;;;32.30;24.40;;;;;;5031682;28;20523;-50
2022/08/12 09:55:46;;;;;;;2.40;2.30;;;32.10;24.80;;;;;;5031642;28;20436;-49
2022/08/12 09:58:16;;;;;;;2.20;2.10;;;32.10;25.20;;;;;;5032100;28;20482;-50
2022/08/12 10:00:46;;;;;;;2.30;2.10;;;32.40;24.90;;;;;;5031150;28;20440;-49
2022/08/12 10:03:14;;;;;;;3.63;2.03;;;32.50;24.70;;;;;;5031722;28;20931;-49
2022/08/12 10:05:42;;;;;;;3.50;2.30;;;32.00;25.20;;;;;;5031399;28;20431;-46
2022/08/12 10:08:10;;;;;;;2.87;2.60;;;31.80;25.60;;;;;;5031716;28;20424;-47
2022/08/12 10:13:40;;;;;;;2.50;2.30;;;31.80;25.70;;;;;;5030647;28;20853;-50
2022/08/12 10:13:42;;;;;;;2.83;2.63;;;31.50;25.70;;;;;;5029721;28;20439;-48
2022/08/12 10:16:11;;;;;;;2.23;2.03;;;31.40;25.60;;;;;;5031465;28;20501;-49
2022/08/12 10:18:58;;;;;;;2.50;2.30;;;32.00;25.30;;;;;;5031150;28;20997;-49
2022/08/12 10:21:38;;;;;;;2.10;2.00;;;32.70;24.80;;;;;;5031195;28;20435;-49
2022/08/12 10:24:09;;;;;;;2.43;2.00;;;33.30;24.50;;;;;;5030642;28;20448;-47
2022/08/12 10:29:40;;;;;;;3.67;2.00;;;33.60;24.20;;;;;;5038764;28;20489;-50
2022/08/12 10:32:08;;;;;;;1.90;1.80;;;34.00;23.60;;;;;;5051033;28;20546;-46
2022/08/12 10:34:34;;;;;;;2.57;2.37;;;33.80;23.50;;;;;;5049872;28;20463;-49
2022/08/12 10:37:02;;;;;;;2.63;2.20;;;33.80;23.40;;;;;;5051132;28;20839;-46
2022/08/12 10:39:31;;;;;;;3.97;2.50;;;33.90;23.30;;;;;;5049007;28;20489;-50
2022/08/12 10:44:45;;;;;;;2.33;1.93;;;34.40;22.90;;;;;;5050708;28;20524;-45
2022/08/12 10:47:11;;;;;;;2.40;2.03;;;34.40;22.40;;;;;;5051232;28;20434;-47
2022/08/12 10:49:36;;;;;;;2.60;2.00;;;34.70;22.30;;;;;;5050532;28;20855;-46
2022/08/12 10:52:04;;;;;;;1.97;1.77;;;35.10;21.90;;;;;;5050886;28;20197;-49
2022/08/12 10:54:30;;;;;;;2.80;1.90;;;35.30;21.50;;;;;;5035871;28;20200;-49
2022/08/12 10:56:59;;;;;;;4.50;2.30;;;35.00;21.90;;;;;;5031010;28;20975;-46
2022/08/12 10:59:28;;;;;;;4.60;1.97;;;35.20;21.80;;;;;;5030379;28;20201;-46
2022/08/12 11:01:58;;;;;;;2.50;2.30;;;35.30;21.50;;;;;;5030749;28;20432;-48
2022/08/12 11:04:27;;;;;;;2.67;1.93;;;35.50;21.20;;;;;;5030144;28;20408;-46
2022/08/12 11:06:55;;;;;;;2.30;2.10;;;35.70;21.00;;;;;;5029292;28;20494;-46
2022/08/12 11:09:23;;;;;;;3.00;2.40;;;35.90;20.90;;;;;;5030302;28;20531;-50
2022/08/12 11:11:49;;;;;;;3.20;2.00;;;36.10;20.70;;;;;;5030557;28;20487;-46
2022/08/12 11:14:16;;;;;;;5.83;2.40;;;35.90;20.50;;;;;;5030314;28;20423;-46
2022/08/12 11:16:45;;;;;;;1.93;1.83;;;35.90;20.20;;;;;;5030905;28;20435;-46
2022/08/12 11:19:12;;;;;;;7.03;1.90;;;35.90;20.80;;;;;;5030352;28;20412;-50
2022/08/12 11:21:38;;;;;;;2.23;1.83;;;35.10;20.90;;;;;;5030346;28;20434;-45
2022/08/12 11:24:04;;;;;;;2.53;2.33;;;35.00;21.00;;;;;;5030082;28;20515;-47
2022/08/12 11:26:30;;;;;;;2.40;2.20;;;35.00;21.20;;;;;;5030706;28;20452;-49
2022/08/12 11:28:55;;;;;;;2.20;2.00;;;35.20;21.00;;;;;;5030253;28;20470;-46
2022/08/12 11:31:21;;;;;;;2.10;2.00;;;35.50;21.00;;;;;;5030288;28;20645;-51
2022/08/12 11:33:48;;;;;;;2.00;1.90;;;36.00;20.60;;;;;;5028604;28;20231;-50
2022/08/12 11:36:14;;;;;;;2.47;2.23;;;36.00;20.10;;;;;;5030551;28;20497;-49
2022/08/12 11:38:40;;;;;;;2.40;2.20;;;36.10;20.40;;;;;;5029988;28;20459;-46
2022/08/12 11:41:05;;;;;;;2.50;1.80;;;36.30;20.30;;;;;;5030159;28;20459;-50
2022/08/12 11:43:32;;;;;;;2.40;2.30;;;36.30;19.90;;;;;;5029901;28;20352;-49
2022/08/12 11:45:58;;;;;;;2.27;2.17;;;36.40;20.10;;;;;;5033645;28;20203;-46
2022/08/12 11:48:24;;;;;;;3.27;2.20;;;36.30;20.30;;;;;;5034517;28;20792;-50
2022/08/12 11:50:50;;;;;;;2.00;1.80;;;36.20;20.70;;;;;;5033272;28;20573;-47
2022/08/12 11:53:16;;;;;;;2.20;2.00;;;36.30;20.60;;;;;;5034438;28;20419;-47
2022/08/12 11:55:41;;;;;;;2.77;2.50;;;36.20;20.80;;;;;;5033790;28;20208;-46
2022/08/12 11:58:07;;;;;;;4.73;2.27;;;36.50;21.20;;;;;;5034203;28;20207;-46
2022/08/12 12:00:33;;;;;;;2.07;1.97;;;36.80;20.50;;;;;;5031497;28;20238;-46
2022/08/12 12:02:59;;;;;;;2.93;1.80;;;36.80;20.40;;;;;;5034258;28;20663;-46
2022/08/12 12:05:24;;;;;;;2.57;2.37;;;36.60;20.20;;;;;;5033515;28;20423;-49
2022/08/12 12:07:50;;;;;;;2.40;2.20;;;35.90;20.20;;;;;;5033936;28;20251;-51
2022/08/12 12:10:18;;;;;;;2.27;2.17;;;34.40;21.60;;;;;;5033080;28;20225;-46
2022/08/12 12:12:44;;;;;;;4.80;2.03;;;34.10;22.30;;;;;;5034074;28;20192;-50
2022/08/12 12:15:10;;;;;;;2.17;2.07;;;34.10;22.60;;;;;;5033720;28;20420;-47
2022/08/12 12:17:38;;;;;;;2.30;2.20;;;34.10;22.80;;;;;;5033926;28;20515;-47
2022/08/12 12:20:08;;;;;;;1.90;1.80;;;34.50;22.60;;;;;;5032968;28;20515;-46
2022/08/12 12:22:39;;;;;;;2.80;2.13;;;34.90;21.90;;;;;;5033689;28;20813;-46
2022/08/12 12:25:06;;;;;;;3.07;2.47;;;35.20;21.80;;;;;;5033248;28;20440;-50
2022/08/12 12:27:49;;;;;;;2.37;2.17;;;35.40;21.40;;;;;;5031969;28;20428;-51
2022/08/12 12:30:15;;;;;;;2.23;2.13;;;35.40;21.40;;;;;;5032556;28;20495;-50
2022/08/12 12:32:41;;;;;;;2.40;2.20;;;35.50;21.60;;;;;;5033597;28;20427;-50
2022/08/12 12:35:07;;;;;;;2.90;1.97;;;35.90;21.70;;;;;;5033007;28;20428;-49
2022/08/12 12:37:33;;;;;;;3.67;1.70;;;35.90;21.20;;;;;;5033297;28;20551;-49
2022/08/12 12:39:59;;;;;;;2.73;2.13;;;36.00;21.00;;;;;;5032306;28;21045;-51
2022/08/12 12:42:24;;;;;;;3.13;2.27;;;36.00;21.20;;;;;;5033536;28;20656;-49
2022/08/12 12:44:50;;;;;;;2.57;2.20;;;35.90;21.40;;;;;;5032924;28;20223;-50
2022/08/12 12:47:16;;;;;;;1.77;1.67;;;35.80;21.10;;;;;;5033584;28;20243;-50
2022/08/12 12:49:42;;;;;;;2.63;2.40;;;35.60;21.10;;;;;;5032371;28;20193;-50
2022/08/12 12:52:07;;;;;;;4.97;2.37;;;35.70;21.00;;;;;;5033319;28;20185;-51
2022/08/12 12:54:33;;;;;;;2.00;1.80;;;35.90;21.20;;;;;;5031141;28;20193;-49
2022/08/12 12:56:59;;;;;;;3.07;1.83;;;35.90;21.00;;;;;;5031840;28;20196;-50
2022/08/12 12:59:26;;;;;;;3.93;1.97;;;35.70;21.10;;;;;;5032311;28;20197;-51
2022/08/12 13:01:52;;;;;;;3.97;2.00;;;35.10;20.70;;;;;;5032820;28;20708;-49
2022/08/12 13:04:18;;;;;;;3.20;2.20;;;34.60;21.70;;;;;;5032552;28;20427;-48
2022/08/12 13:06:50;;;;;;;2.33;2.13;;;34.60;21.70;;;;;;5033018;28;20251;-50
2022/08/12 13:09:17;;;;;;;2.50;2.30;;;34.60;21.70;;;;;;5032593;28;20197;-50
2022/08/12 13:11:42;;;;;;;2.23;1.90;;;34.90;22.00;;;;;;5032532;28;20910;-51
2022/08/12 13:14:12;;;;;;;3.23;2.07;;;35.20;21.30;;;;;;5032152;28;20432;-50
2022/08/12 13:16:39;;;;;;;3.23;2.03;;;35.20;21.10;;;;;;5033062;28;20989;-49
2022/08/12 13:19:04;;;;;;;2.27;2.07;;;35.10;21.40;;;;;;5032235;28;20439;-48
2022/08/12 13:21:31;;;;;;;2.73;2.00;;;34.90;21.30;;;;;;5030796;28;20502;-50
2022/08/12 13:23:57;;;;;;;2.87;2.13;;;34.90;21.50;;;;;;5032050;28;20243;-46
2022/08/12 13:26:23;;;;;;;2.80;1.80;;;34.70;21.10;;;;;;5032593;28;20940;-50
2022/08/12 13:28:52;;;;;;;2.10;1.90;;;34.80;21.40;;;;;;5032056;28;20254;-50
2022/08/12 13:31:20;;;;;;;2.67;2.47;;;34.80;21.70;;;;;;5032080;28;20256;-47
2022/08/12 13:33:50;;;;;;;2.50;1.77;;;34.80;21.60;;;;;;5032095;28;20479;-46
2022/08/12 13:36:17;;;;;;;2.87;2.67;;;34.60;21.60;;;;;;5032573;28;20432;-50
2022/08/12 13:38:52;;;;;;;2.03;1.87;;;34.70;21.70;;;;;;5031651;28;20456;-47
2022/08/12 13:41:34;;;;;;;2.40;1.87;;;34.90;21.60;;;;;;5032078;28;20431;-51
2022/08/12 13:44:03;;;;;;;6.20;2.20;;;35.00;21.50;;;;;;5031752;28;20424;-50
2022/08/12 13:46:29;;;;;;;2.13;1.60;;;35.10;21.30;;;;;;5030707;28;20439;-47
2022/08/12 13:48:55;;;;;;;2.30;1.80;;;35.00;21.60;;;;;;5031773;28;20426;-48
2022/08/12 13:51:21;;;;;;;2.60;2.33;;;35.00;21.40;;;;;;5031697;28;20232;-46
2022/08/12 13:53:47;;;;;;;2.17;2.00;;;35.10;21.10;;;;;;5031669;28;20458;-46
2022/08/12 13:56:13;;;;;;;4.40;2.10;;;35.00;21.10;;;;;;5032019;28;20426;-45
2022/08/12 13:58:43;;;;;;;1.83;1.73;;;35.10;21.30;;;;;;5031371;28;20213;-46
2022/08/12 14:01:09;;;;;;;3.30;1.40;;;35.20;21.20;;;;;;5031295;28;20243;-46
2022/08/12 14:03:36;;;;;;;1.80;1.70;;;35.40;20.90;;;;;;5031102;28;20420;-46
2022/08/12 14:06:03;;;;;;;2.90;1.80;;;35.50;20.50;;;;;;5031729;28;20197;-46
2022/08/12 14:08:29;;;;;;;2.20;2.00;;;35.70;20.20;;;;;;5031199;28;20428;-46
2022/08/12 14:10:55;;;;;;;5.33;2.07;;;35.80;19.80;;;;;;5030818;28;20897;-46
2022/08/12 14:13:25;;;;;;;2.00;1.90;;;35.90;20.30;;;;;;5028779;28;21015;-46
2022/08/12 14:15:56;;;;;;;4.43;1.97;;;35.80;20.50;;;;;;5031107;28;20528;-46
2022/08/12 14:18:26;;;;;;;3.87;2.50;;;36.00;20.40;;;;;;5031662;28;21293;-47
2022/08/12 14:20:57;;;;;;;1.90;1.80;;;36.30;20.40;;;;;;5030711;28;20428;-46
2022/08/12 14:23:25;;;;;;;2.30;1.50;;;36.00;20.20;;;;;;5031392;28;20444;-46
2022/08/12 14:25:57;;;;;;;2.03;1.80;;;35.90;20.00;;;;;;5030841;28;20527;-46
2022/08/12 14:28:23;;;;;;;1.80;1.70;;;35.60;20.20;;;;;;5031457;28;20865;-47
2022/08/12 14:30:59;;;;;;;4.33;1.60;;;35.90;20.00;;;;;;5030262;28;20566;-46
2022/08/12 14:33:32;;;;;;;1.90;1.80;;;36.00;20.20;;;;;;5031058;28;20203;-47
2022/08/12 14:35:59;;;;;;;2.00;1.90;;;35.90;19.90;;;;;;5031468;28;20415;-48
2022/08/12 14:38:30;;;;;;;1.67;1.57;;;35.90;20.10;;;;;;5031308;28;20519;-46